sensor_id;sensor_type;location;lat;lon;timestamp;P1;durP1;ratioP1;P2;durP2;ratioP2
72590;SDS011;60625;51.212;5.952;2022-12-05T00:03:56;46.20;;;19.50;;
72590;SDS011;60625;51.212;5.952;2022-12-05T00:08:58;46.60;;;20.00;;
72590;SDS011;60625;51.212;5.952;2022-12-05T00:14:00;40.20;;;18.00;;
72590;SDS011;60625;51.212;5.952;2022-12-05T00:19:04;41.30;;;17.50;;
72590;SDS011;60625;51.212;5.952;2022-12-05T00:24:07;38.90;;;18.50;;
72590;SDS011;60625;51.212;5.952;2022-12-05T00:29:11;40.60;;;18.40;;
72590;SDS011;60625;51.212;5.952;2022-12-05T00:34:12;43.20;;;19.20;;
72590;SDS011;60625;51.212;5.952;2022-12-05T00:39:13;45.70;;;20.00;;
72590;SDS011;60625;51.212;5.952;2022-12-05T00:44:14;46.30;;;19.40;;
72590;SDS011;60625;51.212;5.952;2022-12-05T00:49:15;46.30;;;19.70;;
72590;SDS011;60625;51.212;5.952;2022-12-05T00:54:16;42.50;;;19.00;;
72590;SDS011;60625;51.212;5.952;2022-12-05T00:59:18;43.40;;;19.50;;
72590;SDS011;60625;51.212;5.952;2022-12-05T01:04:22;45.30;;;18.60;;
72590;SDS011;60625;51.212;5.952;2022-12-05T01:09:24;46.20;;;20.20;;
72590;SDS011;60625;51.212;5.952;2022-12-05T01:14:26;44.40;;;20.10;;
72590;SDS011;60625;51.212;5.952;2022-12-05T01:19:30;53.00;;;21.60;;
72590;SDS011;60625;51.212;5.952;2022-12-05T01:24:32;44.20;;;19.50;;
72590;SDS011;60625;51.212;5.952;2022-12-05T01:29:32;42.90;;;19.30;;
72590;SDS011;60625;51.212;5.952;2022-12-05T01:34:33;45.80;;;18.90;;
72590;SDS011;60625;51.212;5.952;2022-12-05T01:39:34;50.90;;;21.50;;
72590;SDS011;60625;51.212;5.952;2022-12-05T01:49:40;47.40;;;20.20;;
72590;SDS011;60625;51.212;5.952;2022-12-05T01:54:43;52.10;;;20.90;;
72590;SDS011;60625;51.212;5.952;2022-12-05T01:59:50;51.90;;;20.60;;
72590;SDS011;60625;51.212;5.952;2022-12-05T02:05:03;49.60;;;19.90;;
72590;SDS011;60625;51.212;5.952;2022-12-05T02:10:09;50.20;;;20.40;;
72590;SDS011;60625;51.212;5.952;2022-12-05T02:20:18;55.00;;;20.80;;
72590;SDS011;60625;51.212;5.952;2022-12-05T02:30:42;49.20;;;20.00;;
72590;SDS011;60625;51.212;5.952;2022-12-05T02:36:07;45.10;;;19.50;;
72590;SDS011;60625;51.212;5.952;2022-12-05T02:41:24;51.40;;;21.60;;
72590;SDS011;60625;51.212;5.952;2022-12-05T02:46:31;50.60;;;20.20;;
72590;SDS011;60625;51.212;5.952;2022-12-05T02:51:38;45.20;;;19.60;;
72590;SDS011;60625;51.212;5.952;2022-12-05T02:56:46;47.90;;;20.90;;
72590;SDS011;60625;51.212;5.952;2022-12-05T03:01:47;48.30;;;20.70;;
72590;SDS011;60625;51.212;5.952;2022-12-05T03:06:56;41.00;;;18.40;;
72590;SDS011;60625;51.212;5.952;2022-12-05T03:17:12;38.10;;;15.20;;
72590;SDS011;60625;51.212;5.952;2022-12-05T03:22:30;46.80;;;16.70;;
72590;SDS011;60625;51.212;5.952;2022-12-05T03:27:49;44.60;;;18.40;;
72590;SDS011;60625;51.212;5.952;2022-12-05T03:38:30;45.40;;;20.70;;
72590;SDS011;60625;51.212;5.952;2022-12-05T03:43:34;44.40;;;19.50;;
72590;SDS011;60625;51.212;5.952;2022-12-05T03:49:05;44.00;;;17.60;;
72590;SDS011;60625;51.212;5.952;2022-12-05T03:54:55;39.20;;;16.40;;
72590;SDS011;60625;51.212;5.952;2022-12-05T04:00:02;43.70;;;19.70;;
72590;SDS011;60625;51.212;5.952;2022-12-05T04:05:10;44.40;;;20.90;;
72590;SDS011;60625;51.212;5.952;2022-12-05T04:10:27;47.00;;;19.40;;
72590;SDS011;60625;51.212;5.952;2022-12-05T04:15:31;44.80;;;20.30;;
72590;SDS011;60625;51.212;5.952;2022-12-05T04:20:54;49.00;;;20.00;;
72590;SDS011;60625;51.212;5.952;2022-12-05T04:26:23;50.70;;;20.50;;
72590;SDS011;60625;51.212;5.952;2022-12-05T04:31:36;46.30;;;18.90;;
72590;SDS011;60625;51.212;5.952;2022-12-05T04:36:55;49.50;;;22.90;;
72590;SDS011;60625;51.212;5.952;2022-12-05T04:42:04;46.60;;;22.60;;
72590;SDS011;60625;51.212;5.952;2022-12-05T04:47:12;58.60;;;23.60;;
72590;SDS011;60625;51.212;5.952;2022-12-05T04:52:36;55.50;;;23.10;;
72590;SDS011;60625;51.212;5.952;2022-12-05T04:57:54;55.70;;;23.50;;
72590;SDS011;60625;51.212;5.952;2022-12-05T05:03:27;56.10;;;23.70;;
72590;SDS011;60625;51.212;5.952;2022-12-05T05:08:52;55.10;;;21.00;;
72590;SDS011;60625;51.212;5.952;2022-12-05T05:13:55;56.20;;;22.40;;
72590;SDS011;60625;51.212;5.952;2022-12-05T05:18:56;56.60;;;24.10;;
72590;SDS011;60625;51.212;5.952;2022-12-05T05:23:58;55.30;;;23.00;;
72590;SDS011;60625;51.212;5.952;2022-12-05T05:28:59;56.10;;;22.70;;
72590;SDS011;60625;51.212;5.952;2022-12-05T05:34:01;59.70;;;24.40;;
72590;SDS011;60625;51.212;5.952;2022-12-05T05:39:03;57.40;;;23.60;;
72590;SDS011;60625;51.212;5.952;2022-12-05T05:44:06;55.60;;;23.00;;
72590;SDS011;60625;51.212;5.952;2022-12-05T05:49:06;57.20;;;23.20;;
72590;SDS011;60625;51.212;5.952;2022-12-05T05:54:08;58.10;;;23.00;;
72590;SDS011;60625;51.212;5.952;2022-12-05T05:59:09;53.20;;;22.50;;
72590;SDS011;60625;51.212;5.952;2022-12-05T06:04:10;50.40;;;20.70;;
72590;SDS011;60625;51.212;5.952;2022-12-05T06:09:13;51.10;;;20.80;;
72590;SDS011;60625;51.212;5.952;2022-12-05T06:14:14;52.50;;;21.80;;
72590;SDS011;60625;51.212;5.952;2022-12-05T06:19:15;44.30;;;20.60;;
72590;SDS011;60625;51.212;5.952;2022-12-05T06:24:16;47.50;;;21.40;;
72590;SDS011;60625;51.212;5.952;2022-12-05T06:29:17;40.00;;;18.80;;
72590;SDS011;60625;51.212;5.952;2022-12-05T06:34:18;44.10;;;20.30;;
72590;SDS011;60625;51.212;5.952;2022-12-05T06:39:18;43.60;;;20.50;;
72590;SDS011;60625;51.212;5.952;2022-12-05T06:44:19;43.20;;;19.20;;
72590;SDS011;60625;51.212;5.952;2022-12-05T06:49:22;43.90;;;18.80;;
72590;SDS011;60625;51.212;5.952;2022-12-05T06:54:26;44.00;;;18.90;;
72590;SDS011;60625;51.212;5.952;2022-12-05T06:59:26;38.80;;;17.60;;
72590;SDS011;60625;51.212;5.952;2022-12-05T07:04:27;43.30;;;18.20;;
72590;SDS011;60625;51.212;5.952;2022-12-05T07:09:28;50.00;;;19.10;;
72590;SDS011;60625;51.212;5.952;2022-12-05T07:14:48;35.90;;;17.40;;
72590;SDS011;60625;51.212;5.952;2022-12-05T07:19:50;49.60;;;19.70;;
72590;SDS011;60625;51.212;5.952;2022-12-05T07:24:51;39.30;;;18.10;;
72590;SDS011;60625;51.212;5.952;2022-12-05T07:29:52;43.80;;;17.50;;
72590;SDS011;60625;51.212;5.952;2022-12-05T07:34:53;37.70;;;16.90;;
72590;SDS011;60625;51.212;5.952;2022-12-05T07:39:54;41.70;;;18.10;;
72590;SDS011;60625;51.212;5.952;2022-12-05T07:44:54;40.70;;;16.40;;
72590;SDS011;60625;51.212;5.952;2022-12-05T07:49:55;40.60;;;18.20;;
72590;SDS011;60625;51.212;5.952;2022-12-05T07:54:55;37.90;;;16.50;;
72590;SDS011;60625;51.212;5.952;2022-12-05T07:59:58;42.60;;;17.80;;
72590;SDS011;60625;51.212;5.952;2022-12-05T08:04:58;43.30;;;16.80;;
72590;SDS011;60625;51.212;5.952;2022-12-05T08:09:59;42.40;;;16.70;;
72590;SDS011;60625;51.212;5.952;2022-12-05T08:14:59;36.80;;;16.00;;
72590;SDS011;60625;51.212;5.952;2022-12-05T08:20:00;35.60;;;16.40;;
72590;SDS011;60625;51.212;5.952;2022-12-05T08:25:02;35.50;;;16.50;;
72590;SDS011;60625;51.212;5.952;2022-12-05T08:30:04;32.30;;;14.80;;
72590;SDS011;60625;51.212;5.952;2022-12-05T08:35:05;29.10;;;14.50;;
72590;SDS011;60625;51.212;5.952;2022-12-05T08:40:07;26.00;;;13.60;;
72590;SDS011;60625;51.212;5.952;2022-12-05T08:45:08;25.60;;;13.10;;
72590;SDS011;60625;51.212;5.952;2022-12-05T08:50:09;25.90;;;14.20;;
72590;SDS011;60625;51.212;5.952;2022-12-05T08:55:10;26.90;;;13.40;;
72590;SDS011;60625;51.212;5.952;2022-12-05T09:00:11;25.30;;;13.20;;
72590;SDS011;60625;51.212;5.952;2022-12-05T09:05:13;26.70;;;12.90;;
72590;SDS011;60625;51.212;5.952;2022-12-05T09:10:13;24.40;;;11.80;;
72590;SDS011;60625;51.212;5.952;2022-12-05T09:15:17;21.30;;;10.90;;
72590;SDS011;60625;51.212;5.952;2022-12-05T09:20:18;22.80;;;11.00;;
72590;SDS011;60625;51.212;5.952;2022-12-05T09:25:18;21.00;;;10.80;;
72590;SDS011;60625;51.212;5.952;2022-12-05T09:30:19;17.20;;;10.00;;
72590;SDS011;60625;51.212;5.952;2022-12-05T09:35:20;21.60;;;11.30;;
72590;SDS011;60625;51.212;5.952;2022-12-05T09:40:20;18.00;;;9.70;;
72590;SDS011;60625;51.212;5.952;2022-12-05T09:45:27;16.00;;;8.80;;
72590;SDS011;60625;51.212;5.952;2022-12-05T09:50:32;14.70;;;7.50;;
72590;SDS011;60625;51.212;5.952;2022-12-05T10:01:24;14.60;;;8.30;;
72590;SDS011;60625;51.212;5.952;2022-12-05T10:12:33;14.90;;;8.10;;
72590;SDS011;60625;51.212;5.952;2022-12-05T10:17:38;13.30;;;7.50;;
72590;SDS011;60625;51.212;5.952;2022-12-05T10:22:53;13.90;;;8.20;;
72590;SDS011;60625;51.212;5.952;2022-12-05T10:28:10;13.30;;;7.20;;
72590;SDS011;60625;51.212;5.952;2022-12-05T10:33:20;15.90;;;8.70;;
72590;SDS011;60625;51.212;5.952;2022-12-05T10:38:28;14.20;;;8.40;;
72590;SDS011;60625;51.212;5.952;2022-12-05T10:43:32;14.30;;;7.90;;
72590;SDS011;60625;51.212;5.952;2022-12-05T10:48:41;14.50;;;7.60;;
72590;SDS011;60625;51.212;5.952;2022-12-05T10:53:46;12.30;;;6.60;;
72590;SDS011;60625;51.212;5.952;2022-12-05T10:58:56;14.60;;;7.40;;
72590;SDS011;60625;51.212;5.952;2022-12-05T11:04:09;14.10;;;6.70;;
72590;SDS011;60625;51.212;5.952;2022-12-05T11:09:24;14.80;;;8.60;;
72590;SDS011;60625;51.212;5.952;2022-12-05T11:14:35;14.60;;;7.70;;
72590;SDS011;60625;51.212;5.952;2022-12-05T11:19:37;14.60;;;7.60;;
72590;SDS011;60625;51.212;5.952;2022-12-05T11:24:39;15.00;;;8.40;;
72590;SDS011;60625;51.212;5.952;2022-12-05T11:29:40;13.30;;;7.50;;
72590;SDS011;60625;51.212;5.952;2022-12-05T11:40:24;12.70;;;7.00;;
72590;SDS011;60625;51.212;5.952;2022-12-05T11:51:12;11.00;;;5.60;;
72590;SDS011;60625;51.212;5.952;2022-12-05T11:56:46;12.00;;;5.00;;
72590;SDS011;60625;51.212;5.952;2022-12-05T12:07:28;11.80;;;6.60;;
72590;SDS011;60625;51.212;5.952;2022-12-05T12:13:23;12.40;;;6.20;;
72590;SDS011;60625;51.212;5.952;2022-12-05T12:40:33;15.30;;;7.50;;
72590;SDS011;60625;51.212;5.952;2022-12-05T12:51:16;15.90;;;8.60;;
72590;SDS011;60625;51.212;5.952;2022-12-05T12:56:20;17.50;;;9.70;;
72590;SDS011;60625;51.212;5.952;2022-12-05T13:07:25;15.80;;;8.20;;
72590;SDS011;60625;51.212;5.952;2022-12-05T13:12:38;13.50;;;8.00;;
72590;SDS011;60625;51.212;5.952;2022-12-05T13:17:45;12.70;;;7.60;;
72590;SDS011;60625;51.212;5.952;2022-12-05T13:22:49;15.80;;;8.80;;
72590;SDS011;60625;51.212;5.952;2022-12-05T13:27:57;14.90;;;8.40;;
72590;SDS011;60625;51.212;5.952;2022-12-05T13:33:08;12.60;;;6.50;;
72590;SDS011;60625;51.212;5.952;2022-12-05T13:38:31;14.60;;;8.90;;
72590;SDS011;60625;51.212;5.952;2022-12-05T13:43:56;12.60;;;6.50;;
72590;SDS011;60625;51.212;5.952;2022-12-05T13:49:03;12.80;;;8.00;;
72590;SDS011;60625;51.212;5.952;2022-12-05T13:54:25;13.20;;;8.10;;
72590;SDS011;60625;51.212;5.952;2022-12-05T13:59:57;13.70;;;7.90;;
72590;SDS011;60625;51.212;5.952;2022-12-05T14:15:32;12.40;;;7.10;;
72590;SDS011;60625;51.212;5.952;2022-12-05T14:21:18;15.80;;;7.40;;
72590;SDS011;60625;51.212;5.952;2022-12-05T14:32:12;12.90;;;6.30;;
72590;SDS011;60625;51.212;5.952;2022-12-05T15:03:34;21.50;;;9.50;;
72590;SDS011;60625;51.212;5.952;2022-12-05T15:08:45;14.00;;;7.40;;
72590;SDS011;60625;51.212;5.952;2022-12-05T15:13:48;13.30;;;7.30;;
72590;SDS011;60625;51.212;5.952;2022-12-05T15:18:50;12.70;;;7.30;;
72590;SDS011;60625;51.212;5.952;2022-12-05T15:23:56;13.00;;;7.50;;
72590;SDS011;60625;51.212;5.952;2022-12-05T15:34:39;12.60;;;8.00;;
72590;SDS011;60625;51.212;5.952;2022-12-05T15:50:37;14.20;;;8.40;;
72590;SDS011;60625;51.212;5.952;2022-12-05T16:01:37;12.20;;;6.30;;
72590;SDS011;60625;51.212;5.952;2022-12-05T16:12:14;12.40;;;7.20;;
72590;SDS011;60625;51.212;5.952;2022-12-05T16:17:22;13.80;;;8.20;;
72590;SDS011;60625;51.212;5.952;2022-12-05T16:22:25;30.80;;;16.20;;
72590;SDS011;60625;51.212;5.952;2022-12-05T16:27:35;21.60;;;12.80;;
72590;SDS011;60625;51.212;5.952;2022-12-05T16:32:45;15.40;;;9.10;;
72590;SDS011;60625;51.212;5.952;2022-12-05T16:38:09;13.80;;;9.40;;
72590;SDS011;60625;51.212;5.952;2022-12-05T16:43:46;27.80;;;8.70;;
72590;SDS011;60625;51.212;5.952;2022-12-05T16:49:17;16.90;;;10.00;;
72590;SDS011;60625;51.212;5.952;2022-12-05T16:54:21;16.10;;;9.50;;
72590;SDS011;60625;51.212;5.952;2022-12-05T16:59:34;17.80;;;9.60;;
72590;SDS011;60625;51.212;5.952;2022-12-05T17:04:36;19.10;;;11.20;;
72590;SDS011;60625;51.212;5.952;2022-12-05T17:09:37;16.70;;;10.20;;
72590;SDS011;60625;51.212;5.952;2022-12-05T17:14:37;18.00;;;11.10;;
72590;SDS011;60625;51.212;5.952;2022-12-05T17:19:38;17.90;;;10.60;;
72590;SDS011;60625;51.212;5.952;2022-12-05T17:24:38;15.60;;;8.40;;
72590;SDS011;60625;51.212;5.952;2022-12-05T17:29:39;17.60;;;9.40;;
72590;SDS011;60625;51.212;5.952;2022-12-05T17:34:39;18.30;;;9.80;;
72590;SDS011;60625;51.212;5.952;2022-12-05T17:39:39;18.50;;;10.00;;
72590;SDS011;60625;51.212;5.952;2022-12-05T17:44:40;19.30;;;11.70;;
72590;SDS011;60625;51.212;5.952;2022-12-05T17:49:41;20.80;;;12.40;;
72590;SDS011;60625;51.212;5.952;2022-12-05T17:54:41;26.20;;;13.20;;
72590;SDS011;60625;51.212;5.952;2022-12-05T17:59:42;24.20;;;13.40;;
72590;SDS011;60625;51.212;5.952;2022-12-05T18:04:42;22.10;;;13.30;;
72590;SDS011;60625;51.212;5.952;2022-12-05T18:09:43;22.00;;;12.90;;
72590;SDS011;60625;51.212;5.952;2022-12-05T18:14:44;24.60;;;12.40;;
72590;SDS011;60625;51.212;5.952;2022-12-05T18:19:45;21.50;;;12.00;;
72590;SDS011;60625;51.212;5.952;2022-12-05T18:24:46;22.10;;;12.90;;
72590;SDS011;60625;51.212;5.952;2022-12-05T18:29:47;21.40;;;12.20;;
72590;SDS011;60625;51.212;5.952;2022-12-05T18:34:48;24.50;;;12.10;;
72590;SDS011;60625;51.212;5.952;2022-12-05T18:39:48;20.80;;;12.60;;
72590;SDS011;60625;51.212;5.952;2022-12-05T18:44:48;26.00;;;13.70;;
72590;SDS011;60625;51.212;5.952;2022-12-05T18:49:49;26.80;;;14.70;;
72590;SDS011;60625;51.212;5.952;2022-12-05T18:54:50;28.30;;;15.50;;
72590;SDS011;60625;51.212;5.952;2022-12-05T18:59:50;30.10;;;15.80;;
72590;SDS011;60625;51.212;5.952;2022-12-05T19:04:51;27.10;;;14.30;;
72590;SDS011;60625;51.212;5.952;2022-12-05T19:09:51;23.90;;;14.80;;
72590;SDS011;60625;51.212;5.952;2022-12-05T19:14:53;26.20;;;14.00;;
72590;SDS011;60625;51.212;5.952;2022-12-05T19:19:53;25.60;;;13.10;;
72590;SDS011;60625;51.212;5.952;2022-12-05T19:24:56;23.60;;;13.80;;
72590;SDS011;60625;51.212;5.952;2022-12-05T19:29:56;29.20;;;15.20;;
72590;SDS011;60625;51.212;5.952;2022-12-05T19:34:57;25.20;;;14.00;;
72590;SDS011;60625;51.212;5.952;2022-12-05T19:39:57;31.40;;;15.70;;
72590;SDS011;60625;51.212;5.952;2022-12-05T19:44:57;31.40;;;16.00;;
72590;SDS011;60625;51.212;5.952;2022-12-05T19:49:58;31.50;;;15.60;;
72590;SDS011;60625;51.212;5.952;2022-12-05T19:54:59;32.30;;;16.80;;
72590;SDS011;60625;51.212;5.952;2022-12-05T19:59:59;28.40;;;15.20;;
72590;SDS011;60625;51.212;5.952;2022-12-05T20:05:00;25.80;;;14.70;;
72590;SDS011;60625;51.212;5.952;2022-12-05T20:10:00;24.50;;;13.60;;
72590;SDS011;60625;51.212;5.952;2022-12-05T20:15:00;26.30;;;13.30;;
72590;SDS011;60625;51.212;5.952;2022-12-05T20:20:02;22.70;;;13.60;;
72590;SDS011;60625;51.212;5.952;2022-12-05T20:25:06;23.60;;;13.80;;
72590;SDS011;60625;51.212;5.952;2022-12-05T20:30:07;22.80;;;13.00;;
72590;SDS011;60625;51.212;5.952;2022-12-05T20:35:08;23.80;;;12.80;;
72590;SDS011;60625;51.212;5.952;2022-12-05T20:40:09;24.20;;;13.30;;
72590;SDS011;60625;51.212;5.952;2022-12-05T20:45:09;24.70;;;13.60;;
72590;SDS011;60625;51.212;5.952;2022-12-05T20:50:10;24.60;;;13.50;;
72590;SDS011;60625;51.212;5.952;2022-12-05T20:55:12;23.60;;;13.30;;
72590;SDS011;60625;51.212;5.952;2022-12-05T21:00:13;25.60;;;13.30;;
72590;SDS011;60625;51.212;5.952;2022-12-05T21:05:13;23.00;;;13.70;;
72590;SDS011;60625;51.212;5.952;2022-12-05T21:10:14;26.70;;;14.70;;
72590;SDS011;60625;51.212;5.952;2022-12-05T21:15:14;23.40;;;13.90;;
72590;SDS011;60625;51.212;5.952;2022-12-05T21:20:15;23.40;;;13.00;;
72590;SDS011;60625;51.212;5.952;2022-12-05T21:25:16;24.50;;;13.50;;
72590;SDS011;60625;51.212;5.952;2022-12-05T21:30:16;24.60;;;12.90;;
72590;SDS011;60625;51.212;5.952;2022-12-05T21:35:17;26.80;;;13.90;;
72590;SDS011;60625;51.212;5.952;2022-12-05T21:40:17;21.50;;;12.90;;
72590;SDS011;60625;51.212;5.952;2022-12-05T21:45:18;27.20;;;15.00;;
72590;SDS011;60625;51.212;5.952;2022-12-05T21:50:18;29.50;;;14.30;;
72590;SDS011;60625;51.212;5.952;2022-12-05T21:55:19;30.80;;;14.90;;
72590;SDS011;60625;51.212;5.952;2022-12-05T22:00:19;25.80;;;13.30;;
72590;SDS011;60625;51.212;5.952;2022-12-05T22:05:20;29.60;;;13.20;;
72590;SDS011;60625;51.212;5.952;2022-12-05T22:10:20;23.70;;;12.20;;
72590;SDS011;60625;51.212;5.952;2022-12-05T22:15:21;29.30;;;13.40;;
72590;SDS011;60625;51.212;5.952;2022-12-05T22:20:21;30.10;;;13.50;;
72590;SDS011;60625;51.212;5.952;2022-12-05T22:25:23;29.50;;;13.90;;
72590;SDS011;60625;51.212;5.952;2022-12-05T22:30:23;31.10;;;14.80;;
72590;SDS011;60625;51.212;5.952;2022-12-05T22:35:24;28.40;;;14.60;;
72590;SDS011;60625;51.212;5.952;2022-12-05T22:40:24;32.00;;;15.30;;
72590;SDS011;60625;51.212;5.952;2022-12-05T22:45:25;29.40;;;14.20;;
72590;SDS011;60625;51.212;5.952;2022-12-05T22:50:25;29.20;;;14.30;;
72590;SDS011;60625;51.212;5.952;2022-12-05T22:55:26;32.80;;;17.00;;
72590;SDS011;60625;51.212;5.952;2022-12-05T23:00:26;36.10;;;16.00;;
72590;SDS011;60625;51.212;5.952;2022-12-05T23:05:26;32.30;;;16.40;;
72590;SDS011;60625;51.212;5.952;2022-12-05T23:10:27;29.30;;;14.20;;
72590;SDS011;60625;51.212;5.952;2022-12-05T23:15:28;33.70;;;16.00;;
72590;SDS011;60625;51.212;5.952;2022-12-05T23:20:29;34.50;;;15.50;;
72590;SDS011;60625;51.212;5.952;2022-12-05T23:25:30;31.50;;;14.60;;
72590;SDS011;60625;51.212;5.952;2022-12-05T23:30:30;28.60;;;13.60;;
72590;SDS011;60625;51.212;5.952;2022-12-05T23:35:33;30.80;;;14.20;;
72590;SDS011;60625;51.212;5.952;2022-12-05T23:40:34;32.70;;;14.30;;
72590;SDS011;60625;51.212;5.952;2022-12-05T23:45:35;30.60;;;12.50;;
72590;SDS011;60625;51.212;5.952;2022-12-05T23:50:36;37.00;;;15.20;;
72590;SDS011;60625;51.212;5.952;2022-12-05T23:55:36;33.90;;;15.50;;
